Time;durP1;ratioP1;P1;durP2;ratioP2;P2;SDS_P1;SDS_P2;PMS_P1;PMS_P2;Temp;Humidity;BMP_temperature;BMP_pressure;BME280_temperature;BME280_humidity;BME280_pressure;Samples;Min_cycle;Max_cycle;Signal;HPM_P1;HPM_P2
2021/03/21 00:02:56;;;;;;;12.88;5.95;;;3.50;99.90;;;;;;5013418;28;20061;-59
2021/03/21 00:06:02;;;;;;;11.48;7.03;;;3.40;99.90;;;;;;5013019;28;20516;-60
2021/03/21 00:09:08;;;;;;;10.73;6.25;;;3.50;99.90;;;;;;5003268;28;20526;-60
2021/03/21 00:12:13;;;;;;;9.48;6.25;;;3.60;99.90;;;;;;5013126;28;20404;-60
2021/03/21 00:15:17;;;;;;;12.43;7.32;;;3.60;99.90;;;;;;5013129;28;20042;-60
2021/03/21 00:18:24;;;;;;;10.90;6.60;;;3.60;99.90;;;;;;5013529;28;20033;-60
2021/03/21 00:21:28;;;;;;;13.10;6.60;;;3.50;99.90;;;;;;5012889;28;20527;-60
2021/03/21 00:24:32;;;;;;;14.85;7.85;;;3.40;99.90;;;;;;5001635;28;20037;-58
2021/03/21 00:27:36;;;;;;;15.02;8.45;;;3.40;99.90;;;;;;5012863;28;20514;-59
2021/03/21 00:30:45;;;;;;;13.93;7.95;;;3.30;99.90;;;;;;5012675;28;20045;-59
2021/03/21 00:33:49;;;;;;;18.13;9.20;;;3.30;99.90;;;;;;5012701;28;20049;-59
2021/03/21 00:36:53;;;;;;;13.95;7.88;;;3.20;99.90;;;;;;5012490;28;20049;-58
2021/03/21 00:39:57;;;;;;;13.30;7.35;;;3.10;99.90;;;;;;5004027;28;20404;-60
2021/03/21 00:43:01;;;;;;;14.40;8.23;;;3.00;99.90;;;;;;5001446;28;20420;-61
2021/03/21 00:46:06;;;;;;;13.13;7.82;;;3.00;99.90;;;;;;5012133;28;20400;-59
2021/03/21 00:49:11;;;;;;;11.02;6.60;;;3.00;99.90;;;;;;5012332;28;20057;-60
2021/03/21 00:52:14;;;;;;;13.68;7.32;;;2.80;99.90;;;;;;5000928;28;20048;-59
2021/03/21 00:55:19;;;;;;;15.93;6.53;;;2.70;99.90;;;;;;5012027;28;20097;-61
2021/03/21 00:58:23;;;;;;;12.15;6.72;;;2.70;99.90;;;;;;5012525;28;20056;-61
2021/03/21 01:01:30;;;;;;;13.35;6.75;;;2.70;99.90;;;;;;5011445;28;20049;-58
2021/03/21 01:04:34;;;;;;;19.48;6.45;;;2.60;99.90;;;;;;5012325;28;20037;-60
2021/03/21 01:07:38;;;;;;;12.40;6.68;;;2.70;99.90;;;;;;5011621;28;20045;-59
2021/03/21 01:10:43;;;;;;;12.32;6.90;;;2.70;99.90;;;;;;4998465;28;20044;-61
2021/03/21 01:13:47;;;;;;;12.20;7.10;;;2.70;99.90;;;;;;5011894;28;20400;-61
2021/03/21 01:16:52;;;;;;;10.63;6.57;;;2.80;99.90;;;;;;5011426;28;20041;-60
2021/03/21 01:19:56;;;;;;;13.02;7.00;;;2.80;99.90;;;;;;5011659;28;20049;-59
2021/03/21 01:23:00;;;;;;;13.93;7.65;;;2.70;99.90;;;;;;5001567;28;20041;-60
2021/03/21 01:26:04;;;;;;;14.13;7.22;;;2.80;99.90;;;;;;4998792;28;20061;-59
2021/03/21 01:29:09;;;;;;;11.27;6.95;;;3.00;99.90;;;;;;5011899;28;20053;-60
2021/03/21 01:32:14;;;;;;;12.18;7.00;;;3.10;99.90;;;;;;5010930;28;20049;-61
2021/03/21 01:35:18;;;;;;;12.88;6.90;;;3.20;99.90;;;;;;5011608;28;20040;-58
2021/03/21 01:38:23;;;;;;;12.10;7.47;;;3.20;99.90;;;;;;5011503;28;20040;-60
2021/03/21 01:41:34;;;;;;;12.00;7.43;;;3.10;99.90;;;;;;4998922;28;20045;-59
2021/03/21 01:44:39;;;;;;;12.02;7.05;;;3.00;99.90;;;;;;5011636;28;20052;-58
2021/03/21 01:47:43;;;;;;;14.32;7.40;;;3.00;99.90;;;;;;5011077;28;20044;-60
2021/03/21 01:51:25;;;;;;;11.88;6.97;;;3.10;99.90;;;;;;5011216;28;20037;-60
2021/03/21 01:54:30;;;;;;;14.88;8.38;;;3.60;99.90;;;;;;5012882;28;20049;-58
2021/03/21 01:57:35;;;;;;;15.38;7.95;;;3.20;99.90;;;;;;5001836;28;20056;-61
2021/03/21 02:00:40;;;;;;;14.77;7.10;;;3.10;99.90;;;;;;4999441;28;20057;-61
2021/03/21 02:03:45;;;;;;;14.20;8.25;;;3.00;99.90;;;;;;4999488;28;20045;-58
2021/03/21 02:06:54;;;;;;;12.57;7.85;;;3.10;99.90;;;;;;5011027;28;20069;-59
2021/03/21 02:10:33;;;;;;;13.45;7.68;;;3.20;99.90;;;;;;5010940;28;20053;-59
2021/03/21 02:13:42;;;;;;;17.08;7.50;;;3.20;99.90;;;;;;5010631;28;20049;-61
2021/03/21 02:17:01;;;;;;;12.57;6.35;;;3.20;99.90;;;;;;4998327;28;20045;-61
2021/03/21 02:20:17;;;;;;;12.30;7.97;;;3.20;99.90;;;;;;5010780;28;20041;-60
2021/03/21 02:23:59;;;;;;;14.32;8.20;;;3.10;99.90;;;;;;5003449;28;20045;-59
2021/03/21 02:27:18;;;;;;;18.83;8.23;;;3.00;99.90;;;;;;5005369;28;20053;-60
2021/03/21 02:30:44;;;;;;;12.70;7.95;;;3.00;99.90;;;;;;5010383;28;20045;-60
2021/03/21 02:33:52;;;;;;;15.48;8.57;;;2.90;99.90;;;;;;5010432;28;20044;-61
2021/03/21 02:37:08;;;;;;;15.27;8.38;;;3.00;99.90;;;;;;5010693;28;20049;-60
2021/03/21 02:40:37;;;;;;;14.85;8.27;;;3.00;99.90;;;;;;5010961;28;20045;-60
2021/03/21 02:43:48;;;;;;;20.40;8.75;;;2.90;99.90;;;;;;5010385;28;20048;-59
2021/03/21 02:47:09;;;;;;;16.95;8.57;;;2.80;99.90;;;;;;5010180;28;20056;-60
2021/03/21 02:50:30;;;;;;;19.00;7.93;;;3.10;99.90;;;;;;5010124;28;20049;-60
2021/03/21 02:53:49;;;;;;;12.50;8.32;;;3.30;99.90;;;;;;5010090;28;20045;-61
2021/03/21 02:57:00;;;;;;;12.90;7.85;;;3.50;98.90;;;;;;5009707;28;20033;-62
2021/03/21 03:00:06;;;;;;;12.85;7.80;;;3.50;98.60;;;;;;4998042;28;20040;-61
2021/03/21 03:03:12;;;;;;;11.25;6.72;;;3.60;98.70;;;;;;5002664;28;20049;-61
2021/03/21 03:06:26;;;;;;;11.93;6.72;;;3.60;98.60;;;;;;5009523;28;20041;-61
2021/03/21 03:09:48;;;;;;;14.00;7.38;;;3.40;99.20;;;;;;5010147;28;20041;-60
2021/03/21 03:13:08;;;;;;;;;;;3.40;98.00;;;;;;4998713;28;20040;-61
2021/03/21 03:16:54;;;;;;;13.35;6.95;;;3.60;97.30;;;;;;4997925;28;19924;-61
2021/03/21 03:20:08;;;;;;;14.85;7.32;;;3.50;97.60;;;;;;4998150;28;20037;-61
2021/03/21 03:23:28;;;;;;;12.82;7.28;;;3.50;97.20;;;;;;4999527;28;20057;-62
2021/03/21 03:26:53;;;;;;;13.43;8.02;;;3.40;97.00;;;;;;5009256;28;20066;-61
2021/03/21 03:30:08;;;;;;;14.60;7.25;;;3.60;96.60;;;;;;4998025;28;20037;-61
2021/03/21 03:33:12;;;;;;;13.55;7.10;;;3.60;96.40;;;;;;4997181;28;20048;-60
2021/03/21 03:36:18;;;;;;;14.52;7.78;;;3.50;96.90;;;;;;5009229;28;20045;-62
2021/03/21 03:39:24;;;;;;;15.32;8.77;;;3.50;96.90;;;;;;5009588;28;20057;-61
2021/03/21 03:43:03;;;;;;;14.40;7.82;;;3.40;97.10;;;;;;4996952;28;20045;-62
2021/03/21 03:46:20;;;;;;;12.05;7.35;;;3.40;96.90;;;;;;5003507;28;20044;-59
2021/03/21 03:49:37;;;;;;;12.50;6.65;;;3.60;96.50;;;;;;5009643;28;20053;-59
2021/03/21 03:52:54;;;;;;;13.48;6.90;;;3.50;96.50;;;;;;5008909;28;20061;-58
2021/03/21 03:56:08;;;;;;;11.60;7.25;;;3.40;96.70;;;;;;5002101;28;20037;-60
2021/03/21 03:59:44;;;;;;;11.65;7.47;;;3.30;97.00;;;;;;5009827;28;20049;-59
2021/03/21 04:03:06;;;;;;;11.93;7.20;;;3.30;97.00;;;;;;4971433;28;20503;-60
2021/03/21 04:06:33;;;;;;;14.07;7.55;;;3.40;96.90;;;;;;5002331;28;20117;-60
2021/03/21 04:09:53;;;;;;;13.73;7.25;;;3.50;96.30;;;;;;5009441;28;20044;-60
2021/03/21 04:13:21;;;;;;;12.40;5.90;;;3.50;95.80;;;;;;5000437;28;20408;-60
2021/03/21 04:16:39;;;;;;;18.00;6.75;;;3.50;95.60;;;;;;5001199;28;20041;-59
2021/03/21 04:19:54;;;;;;;14.48;8.45;;;3.50;96.30;;;;;;5009311;28;20400;-60
2021/03/21 04:23:25;;;;;;;15.82;7.43;;;3.40;95.60;;;;;;5008834;28;20408;-61
2021/03/21 04:26:52;;;;;;;13.45;7.25;;;3.40;96.00;;;;;;5009230;28;20049;-59
2021/03/21 04:30:02;;;;;;;12.20;6.47;;;3.40;96.70;;;;;;5009220;28;20049;-61
2021/03/21 04:33:11;;;;;;;15.95;7.03;;;3.30;96.40;;;;;;5009052;28;20049;-60
2021/03/21 04:36:26;;;;;;;12.60;6.68;;;3.40;96.60;;;;;;4997494;28;20416;-61
2021/03/21 04:39:33;;;;;;;14.85;7.30;;;3.40;95.90;;;;;;5013290;28;20061;-61
2021/03/21 04:42:47;;;;;;;11.85;6.80;;;3.40;96.00;;;;;;5010533;28;20428;-60
2021/03/21 04:45:55;;;;;;;14.70;6.78;;;3.30;96.20;;;;;;5012820;28;20076;-59
2021/03/21 04:48:59;;;;;;;12.35;7.03;;;3.30;95.30;;;;;;5013370;28;20307;-58
2021/03/21 04:52:19;;;;;;;10.73;5.97;;;3.30;95.90;;;;;;5012712;28;20045;-60
2021/03/21 04:55:41;;;;;;;11.05;6.47;;;3.30;95.20;;;;;;5012194;28;20045;-59
2021/03/21 04:59:18;;;;;;;12.20;6.55;;;3.40;95.40;;;;;;5012453;28;20037;-59
2021/03/21 05:02:28;;;;;;;10.98;5.43;;;3.40;95.40;;;;;;5004354;28;20041;-60
2021/03/21 05:05:43;;;;;;;10.43;5.82;;;3.40;95.90;;;;;;5012156;28;20416;-60
2021/03/21 05:08:58;;;;;;;12.10;6.07;;;3.40;95.80;;;;;;5012323;28;20058;-60
2021/03/21 05:12:10;;;;;;;11.27;6.53;;;3.40;95.60;;;;;;5010250;28;20041;-59
2021/03/21 05:15:34;;;;;;;13.15;6.50;;;3.30;95.30;;;;;;5012055;28;20060;-58
2021/03/21 05:19:12;;;;;;;14.82;6.40;;;3.40;94.40;;;;;;5012016;28;20057;-59
2021/03/21 05:22:34;;;;;;;12.23;5.72;;;3.40;94.90;;;;;;5011100;28;20041;-60
2021/03/21 05:25:47;;;;;;;15.10;6.25;;;3.40;94.90;;;;;;5012153;28;20052;-61
2021/03/21 05:29:04;;;;;;;10.77;5.90;;;3.40;94.50;;;;;;5012010;28;20416;-61
2021/03/21 05:32:11;;;;;;;11.43;5.50;;;3.50;94.70;;;;;;5010938;28;20415;-61
2021/03/21 05:35:19;;;;;;;9.38;6.22;;;3.40;94.60;;;;;;5011439;28;20045;-61
2021/03/21 05:38:43;;;;;;;9.23;5.20;;;3.50;94.60;;;;;;5011875;28;20041;-61
2021/03/21 05:42:13;;;;;;;11.98;5.68;;;3.50;94.20;;;;;;5012185;28;20037;-61
2021/03/21 05:46:09;;;;;;;12.98;6.35;;;3.50;94.80;;;;;;5004086;28;20048;-61
2021/03/21 05:49:31;;;;;;;10.32;6.15;;;3.50;95.40;;;;;;4983732;28;20053;-61
2021/03/21 05:52:54;;;;;;;;;;;3.50;95.50;;;;;;5011431;28;20057;-61
2021/03/21 05:56:27;;;;;;;13.73;5.60;;;3.50;94.40;;;;;;5011222;28;19971;-61
2021/03/21 05:59:56;;;;;;;14.02;6.40;;;3.50;93.70;;;;;;4997716;28;20041;-60
2021/03/21 06:03:09;;;;;;;8.80;4.50;;;3.60;92.80;;;;;;5010195;28;20045;-61
2021/03/21 06:06:31;;;;;;;11.82;4.47;;;3.70;93.10;;;;;;5011179;28;20045;-61
2021/03/21 06:09:57;;;;;;;10.73;4.78;;;3.70;93.10;;;;;;5011591;28;20049;-61
2021/03/21 06:13:35;;;;;;;12.02;5.47;;;3.90;93.20;;;;;;5003271;28;20053;-61
2021/03/21 06:16:51;;;;;;;8.77;4.65;;;4.90;92.70;;;;;;5004604;28;20041;-61
2021/03/21 06:20:23;;;;;;;8.27;4.55;;;6.00;91.30;;;;;;5003513;28;20030;-62
2021/03/21 06:23:59;;;;;;;8.75;4.78;;;7.30;90.40;;;;;;4996488;28;20034;-62
2021/03/21 06:27:08;;;;;;;10.57;4.82;;;7.60;88.30;;;;;;4996690;28;20046;-62
2021/03/21 06:30:26;;;;;;;9.57;5.70;;;8.60;86.60;;;;;;4992068;28;20523;-61
2021/03/21 06:33:53;;;;;;;7.40;4.07;;;9.10;82.20;;;;;;4991379;28;20034;-61
2021/03/21 06:37:18;;;;;;;11.38;5.07;;;7.80;84.30;;;;;;4981431;28;20057;-62
2021/03/21 06:40:43;;;;;;;13.23;5.65;;;8.70;82.40;;;;;;4997942;28;20042;-62
2021/03/21 06:44:09;;;;;;;7.65;4.63;;;9.00;79.90;;;;;;4998549;28;20053;-61
2021/03/21 06:47:20;;;;;;;9.27;5.22;;;9.40;78.80;;;;;;4994608;28;20031;-61
2021/03/21 06:51:18;;;;;;;7.28;5.30;;;9.90;76.00;;;;;;5002003;28;20049;-62
2021/03/21 06:54:34;;;;;;;9.98;5.13;;;11.00;74.30;;;;;;4941522;28;20042;-62
2021/03/21 06:57:50;;;;;;;9.07;5.53;;;12.50;71.40;;;;;;5000722;28;20052;-62
2021/03/21 07:01:00;;;;;;;7.75;4.22;;;12.00;68.00;;;;;;5009212;28;20057;-61
2021/03/21 07:04:23;;;;;;;6.93;4.65;;;11.80;66.70;;;;;;5010029;28;20057;-61
2021/03/21 07:07:36;;;;;;;7.38;4.55;;;11.50;67.40;;;;;;5002464;28;20065;-62
2021/03/21 07:10:59;;;;;;;8.75;4.93;;;11.80;68.60;;;;;;5009671;28;20598;-61
2021/03/21 07:14:23;;;;;;;7.82;4.88;;;12.00;65.10;;;;;;5001935;28;20065;-61
2021/03/21 07:17:30;;;;;;;11.00;5.43;;;11.60;66.70;;;;;;4994076;28;20034;-60
2021/03/21 07:20:54;;;;;;;11.80;5.10;;;11.80;67.20;;;;;;5003668;28;20092;-62
2021/03/21 07:24:18;;;;;;;6.68;4.82;;;10.50;67.40;;;;;;4998928;28;20049;-61
2021/03/21 07:27:55;;;;;;;10.27;5.28;;;10.40;68.10;;;;;;4995188;28;20511;-61
2021/03/21 07:31:19;;;;;;;10.00;5.20;;;11.60;67.60;;;;;;4994363;28;20056;-61
2021/03/21 07:34:38;;;;;;;7.15;4.53;;;11.20;65.80;;;;;;4993346;28;20049;-60
2021/03/21 07:37:52;;;;;;;7.82;4.85;;;11.40;65.80;;;;;;4992026;28;20050;-61
2021/03/21 07:41:14;;;;;;;8.85;4.63;;;12.10;64.40;;;;;;4983815;28;20053;-60
2021/03/21 07:44:30;;;;;;;8.65;5.47;;;11.50;63.90;;;;;;4993644;28;20048;-60
2021/03/21 07:47:55;;;;;;;8.65;5.30;;;12.60;64.20;;;;;;4979749;28;20285;-61
2021/03/21 07:51:12;;;;;;;7.95;4.95;;;13.70;61.70;;;;;;4999946;28;20049;-61
2021/03/21 07:54:19;;;;;;;7.53;4.70;;;13.50;59.70;;;;;;5003229;28;20053;-61
2021/03/21 07:57:36;;;;;;;10.05;5.32;;;13.80;60.10;;;;;;5003674;28;20201;-61
2021/03/21 08:00:41;;;;;;;7.72;4.78;;;13.00;58.90;;;;;;5006232;28;20038;-61
2021/03/21 08:04:06;;;;;;;9.13;4.63;;;12.50;61.90;;;;;;5010340;28;20052;-60
2021/03/21 08:07:14;;;;;;;7.70;4.57;;;12.70;61.10;;;;;;5006017;28;20052;-59
2021/03/21 08:10:39;;;;;;;9.30;4.80;;;13.80;58.70;;;;;;5001909;28;20060;-61
2021/03/21 08:13:48;;;;;;;10.35;5.07;;;14.30;56.80;;;;;;5012912;28;20056;-60
2021/03/21 08:16:57;;;;;;;8.90;5.10;;;13.10;58.30;;;;;;5009013;28;20049;-62
2021/03/21 08:20:17;;;;;;;11.10;4.88;;;12.30;59.30;;;;;;5011886;28;20053;-60
2021/03/21 08:23:36;;;;;;;11.50;5.07;;;12.60;58.00;;;;;;5022025;22;20220;-60
2021/03/21 08:26:43;;;;;;;11.00;5.15;;;14.50;57.10;;;;;;5019026;28;20040;-60
2021/03/21 08:30:10;;;;;;;8.18;5.05;;;14.20;56.00;;;;;;5027727;28;20033;-58
2021/03/21 08:33:29;;;;;;;7.53;4.68;;;13.60;56.90;;;;;;5026886;28;20040;-60
2021/03/21 08:36:34;;;;;;;9.27;5.53;;;12.60;56.20;;;;;;5007486;28;20044;-61
2021/03/21 08:39:44;;;;;;;9.10;5.20;;;13.30;56.90;;;;;;4993615;28;20049;-62
2021/03/21 08:43:14;;;;;;;8.10;4.72;;;15.60;54.80;;;;;;5001297;28;20053;-60
2021/03/21 08:46:23;;;;;;;9.48;5.18;;;16.00;53.30;;;;;;4985871;28;20041;-61
2021/03/21 08:49:38;;;;;;;10.93;5.68;;;16.20;53.10;;;;;;5007587;28;20033;-60
2021/03/21 08:52:45;;;;;;;9.23;5.28;;;18.20;51.00;;;;;;4996675;28;20106;-61
2021/03/21 08:56:29;;;;;;;9.15;4.35;;;17.70;47.40;;;;;;5006145;28;20060;-60
2021/03/21 08:59:43;;;;;;;6.57;4.22;;;14.80;52.00;;;;;;5013437;28;20392;-60
2021/03/21 09:02:49;;;;;;;10.45;4.90;;;14.70;53.40;;;;;;5009324;28;20522;-60
2021/03/21 09:05:55;;;;;;;9.38;5.22;;;13.90;53.90;;;;;;5004857;28;20052;-60
2021/03/21 09:09:22;;;;;;;8.63;4.50;;;14.60;52.50;;;;;;5016999;28;20056;-58
2021/03/21 09:12:33;;;;;;;9.73;6.57;;;15.30;52.80;;;;;;5006317;28;20045;-60
2021/03/21 09:15:54;;;;;;;9.57;4.70;;;15.70;52.10;;;;;;5006513;28;21626;-58
2021/03/21 09:19:17;;;;;;;7.18;5.00;;;15.10;52.60;;;;;;5004283;28;20049;-61
2021/03/21 09:22:40;;;;;;;9.07;5.47;;;16.80;51.20;;;;;;4999606;28;20061;-61
2021/03/21 09:25:53;;;;;;;8.43;4.90;;;16.40;49.40;;;;;;4998364;28;20078;-60
2021/03/21 09:29:22;;;;;;;10.00;5.20;;;16.10;49.30;;;;;;5002466;28;20045;-60
2021/03/21 09:32:30;;;;;;;6.10;4.35;;;16.10;50.80;;;;;;5004402;28;20049;-57
2021/03/21 09:36:15;;;;;;;7.57;5.07;;;16.60;49.20;;;;;;5005331;28;20414;-59
2021/03/21 09:39:33;;;;;;;8.90;5.13;;;16.30;49.20;;;;;;5009385;28;20403;-58
2021/03/21 09:42:37;;;;;;;8.75;5.28;;;14.10;51.10;;;;;;5012831;28;20933;-57
2021/03/21 09:45:44;;;;;;;11.70;5.30;;;15.50;50.20;;;;;;5011767;28;20080;-61
2021/03/21 09:48:51;;;;;;;9.38;5.45;;;15.10;49.50;;;;;;5011750;28;20148;-61
2021/03/21 09:52:12;;;;;;;7.45;4.93;;;17.50;48.60;;;;;;5011834;28;20044;-61
2021/03/21 09:55:39;;;;;;;5.75;4.57;;;16.50;47.60;;;;;;5010722;28;20049;-61
2021/03/21 09:59:08;;;;;;;6.40;5.00;;;16.50;48.00;;;;;;5009459;28;20416;-59
2021/03/21 10:02:36;;;;;;;6.60;5.05;;;16.00;47.60;;;;;;5008730;28;20049;-61
2021/03/21 10:06:09;;;;;;;8.50;4.88;;;18.20;47.30;;;;;;5009078;28;20033;-59
2021/03/21 10:09:20;;;;;;;9.05;5.13;;;17.90;46.20;;;;;;5008063;28;20045;-62
2021/03/21 10:12:25;;;;;;;7.10;4.40;;;17.30;46.30;;;;;;5008696;28;20058;-60
2021/03/21 10:15:29;;;;;;;7.38;4.75;;;18.50;46.00;;;;;;5009570;28;20041;-62
2021/03/21 10:18:51;;;;;;;5.93;4.88;;;19.00;44.40;;;;;;5009647;28;20053;-61
2021/03/21 10:21:55;;;;;;;7.47;4.78;;;19.70;43.30;;;;;;5000904;28;20048;-60
2021/03/21 10:25:12;;;;;;;8.60;5.13;;;19.90;43.90;;;;;;4999777;28;20068;-61
2021/03/21 10:28:43;;;;;;;10.55;5.05;;;19.40;42.30;;;;;;5005400;28;20045;-59
2021/03/21 10:31:48;;;;;;;7.40;5.22;;;18.30;44.20;;;;;;5000991;28;20041;-60
2021/03/21 10:34:54;;;;;;;7.05;4.95;;;19.60;44.30;;;;;;4999021;28;20053;-60
2021/03/21 10:38:10;;;;;;;11.48;5.50;;;18.90;44.40;;;;;;4992641;28;20523;-59
2021/03/21 10:41:52;;;;;;;12.45;7.70;;;19.00;44.50;;;;;;4996332;28;20045;-59
2021/03/21 10:44:58;;;;;;;8.00;5.25;;;17.70;45.50;;;;;;4995884;28;20428;-60
2021/03/21 10:48:14;;;;;;;7.85;5.50;;;17.90;45.60;;;;;;5010303;28;20057;-61
2021/03/21 10:51:18;;;;;;;12.57;5.18;;;19.10;45.40;;;;;;5001346;28;20056;-60
2021/03/21 10:54:26;;;;;;;7.47;5.50;;;19.80;43.80;;;;;;4995941;28;20508;-60
2021/03/21 10:57:59;;;;;;;18.15;5.82;;;19.40;42.70;;;;;;4991360;28;20045;-61
2021/03/21 11:01:20;;;;;;;7.65;5.10;;;20.20;42.80;;;;;;4993307;28;20049;-62
2021/03/21 11:04:32;;;;;;;8.75;5.32;;;19.20;43.30;;;;;;4990696;28;20045;-61
2021/03/21 11:07:36;;;;;;;7.40;5.30;;;19.30;44.10;;;;;;5003830;28;20052;-61
2021/03/21 11:10:49;;;;;;;8.43;5.05;;;18.70;43.50;;;;;;5008472;28;20041;-58
2021/03/21 11:13:53;;;;;;;7.25;4.95;;;18.40;44.00;;;;;;5008784;28;20523;-60
2021/03/21 11:16:59;;;;;;;7.90;5.50;;;19.50;42.70;;;;;;5008467;28;20050;-58
2021/03/21 11:20:25;;;;;;;9.55;6.07;;;19.30;42.40;;;;;;5009431;28;20049;-59
2021/03/21 11:23:46;;;;;;;;;;;19.10;42.40;;;;;;5003032;28;20057;-59
2021/03/21 11:26:51;;;;;;;10.07;5.65;;;18.50;43.20;;;;;;5002363;28;19932;-61
2021/03/21 11:30:09;;;;;;;10.00;5.75;;;18.30;43.20;;;;;;5009444;28;20040;-60
2021/03/21 11:33:37;;;;;;;7.18;5.35;;;16.60;43.70;;;;;;4998664;28;20519;-61
2021/03/21 11:36:41;;;;;;;12.00;5.72;;;18.10;42.70;;;;;;5009918;28;20045;-60
2021/03/21 11:40:05;;;;;;;7.13;4.80;;;17.60;42.40;;;;;;5010096;28;20045;-60
2021/03/21 11:43:22;;;;;;;7.32;5.00;;;17.70;42.50;;;;;;5010081;28;20044;-60
2021/03/21 11:46:30;;;;;;;8.10;5.00;;;18.40;41.30;;;;;;5008679;28;20033;-61
2021/03/21 11:49:35;;;;;;;9.52;6.22;;;17.90;42.20;;;;;;5007396;28;20379;-58
2021/03/21 11:52:40;;;;;;;7.85;5.35;;;18.30;43.60;;;;;;5002681;28;20046;-60
2021/03/21 11:56:00;;;;;;;8.52;5.10;;;17.90;42.70;;;;;;5001818;28;21822;-60
2021/03/21 11:59:11;;;;;;;14.38;5.63;;;18.80;41.50;;;;;;5001052;28;20046;-61
2021/03/21 12:02:25;;;;;;;9.05;5.60;;;18.60;41.40;;;;;;4999019;28;20041;-61
2021/03/21 12:05:32;;;;;;;7.93;6.60;;;18.60;40.30;;;;;;5000610;28;20049;-61
2021/03/21 12:08:40;;;;;;;9.13;5.28;;;17.40;41.10;;;;;;4997326;28;20065;-61
2021/03/21 12:11:45;;;;;;;6.88;4.95;;;17.50;41.10;;;;;;5000303;28;20053;-61
2021/03/21 12:14:49;;;;;;;7.35;5.30;;;17.30;40.10;;;;;;4999273;28;20417;-61
2021/03/21 12:18:04;;;;;;;6.10;4.88;;;17.00;41.00;;;;;;4998644;28;20534;-61
2021/03/21 12:21:09;;;;;;;6.95;5.18;;;17.40;40.30;;;;;;4998429;28;20037;-61
2021/03/21 12:24:14;;;;;;;7.28;5.10;;;17.90;39.70;;;;;;4995531;28;20045;-59
2021/03/21 12:27:35;;;;;;;6.07;4.78;;;17.90;39.20;;;;;;5001083;28;20049;-61
2021/03/21 12:30:44;;;;;;;7.00;5.20;;;18.50;39.20;;;;;;5004262;28;20079;-62
2021/03/21 12:33:49;;;;;;;8.75;4.90;;;19.70;39.00;;;;;;5003223;28;20044;-61
2021/03/21 12:37:05;;;;;;;6.82;5.07;;;20.70;39.10;;;;;;5005341;28;20093;-61
2021/03/21 12:40:17;;;;;;;6.30;4.82;;;19.50;38.30;;;;;;5001536;28;20504;-61
2021/03/21 12:43:29;;;;;;;7.30;5.20;;;19.60;37.80;;;;;;4988422;28;20061;-61
2021/03/21 12:46:41;;;;;;;6.20;4.78;;;19.30;38.70;;;;;;4990422;28;20549;-62
2021/03/21 12:49:51;;;;;;;8.95;5.35;;;21.10;37.40;;;;;;5004056;28;20766;-60
2021/03/21 12:52:56;;;;;;;7.28;4.90;;;19.70;37.50;;;;;;4985087;28;20049;-61
2021/03/21 12:56:03;;;;;;;6.18;4.90;;;18.70;37.80;;;;;;4993994;28;20049;-61
2021/03/21 12:59:08;;;;;;;8.23;5.53;;;18.00;38.00;;;;;;4997708;28;20041;-61
2021/03/21 13:02:31;;;;;;;8.10;4.97;;;18.80;38.00;;;;;;4998589;28;20033;-60
2021/03/21 13:05:40;;;;;;;8.05;5.30;;;17.20;38.10;;;;;;5000550;28;20041;-59
2021/03/21 13:08:45;;;;;;;8.05;5.68;;;16.70;40.00;;;;;;5002274;28;20041;-60
2021/03/21 13:11:49;;;;;;;6.63;4.57;;;16.90;41.10;;;;;;4999611;28;20445;-59
2021/03/21 13:14:54;;;;;;;7.60;4.95;;;18.10;39.80;;;;;;4999555;28;20053;-60
2021/03/21 13:17:59;;;;;;;6.45;4.63;;;18.20;37.70;;;;;;5000666;28;20049;-61
2021/03/21 13:21:04;;;;;;;6.80;5.57;;;17.30;39.50;;;;;;5000039;28;20045;-60
2021/03/21 13:24:09;;;;;;;9.80;5.28;;;17.10;39.90;;;;;;4997941;28;20145;-59
2021/03/21 13:27:14;;;;;;;6.05;4.72;;;17.50;39.90;;;;;;5000811;28;20712;-61
2021/03/21 13:30:21;;;;;;;7.40;5.47;;;17.90;38.90;;;;;;5001223;28;20050;-62
2021/03/21 13:33:29;;;;;;;7.72;5.82;;;18.60;38.60;;;;;;4995902;28;20531;-62
2021/03/21 13:36:34;;;;;;;8.02;5.00;;;19.20;38.00;;;;;;4993100;28;20052;-61
2021/03/21 13:39:40;;;;;;;7.65;4.93;;;20.30;37.20;;;;;;5001968;28;20044;-61
2021/03/21 13:42:48;;;;;;;9.10;5.57;;;21.20;36.50;;;;;;4998559;28;20416;-62
2021/03/21 13:45:55;;;;;;;6.22;4.50;;;21.50;36.20;;;;;;5001404;28;20048;-62
2021/03/21 13:48:59;;;;;;;10.18;4.68;;;21.30;35.50;;;;;;5000697;28;20122;-61
2021/03/21 13:52:06;;;;;;;9.50;6.20;;;19.90;35.80;;;;;;4987665;28;20045;-62
2021/03/21 13:55:19;;;;;;;10.73;4.88;;;20.20;37.00;;;;;;4999766;28;20440;-62
2021/03/21 13:58:24;;;;;;;9.10;5.90;;;19.00;37.30;;;;;;4998764;28;20045;-60
2021/03/21 14:01:28;;;;;;;7.03;5.22;;;19.30;36.80;;;;;;4996771;28;20034;-62
2021/03/21 14:04:32;;;;;;;8.95;5.35;;;19.70;37.20;;;;;;4998060;28;20050;-62
2021/03/21 14:07:36;;;;;;;7.03;5.30;;;20.10;37.00;;;;;;4993288;28;20057;-62
2021/03/21 14:10:40;;;;;;;7.22;5.03;;;20.00;35.70;;;;;;4992874;28;20041;-62
2021/03/21 14:13:45;;;;;;;7.68;4.75;;;20.40;37.10;;;;;;4996697;28;20029;-62
2021/03/21 14:16:49;;;;;;;6.40;4.57;;;21.10;36.00;;;;;;4996469;28;20041;-62
2021/03/21 14:19:53;;;;;;;8.75;5.93;;;20.80;35.80;;;;;;4995241;28;20038;-63
2021/03/21 14:22:58;;;;;;;5.80;4.88;;;20.30;36.20;;;;;;4995207;28;20053;-62
2021/03/21 14:26:02;;;;;;;7.90;6.60;;;20.60;36.10;;;;;;4994762;28;20049;-61
2021/03/21 14:29:07;;;;;;;13.68;9.05;;;20.10;36.50;;;;;;4999125;28;20516;-60
2021/03/21 14:32:11;;;;;;;7.88;4.75;;;19.70;35.80;;;;;;4997999;28;20057;-60
2021/03/21 14:35:17;;;;;;;6.88;5.20;;;18.10;36.00;;;;;;4990277;28;20049;-60
2021/03/21 14:38:23;;;;;;;8.90;6.10;;;15.40;37.90;;;;;;4993945;28;20041;-60
2021/03/21 14:41:27;;;;;;;8.25;6.13;;;14.60;40.70;;;;;;4992134;28;20397;-61
2021/03/21 14:44:33;;;;;;;16.67;11.55;;;15.60;39.80;;;;;;4995114;28;20045;-61
2021/03/21 14:47:38;;;;;;;14.75;9.77;;;16.20;39.70;;;;;;4997019;28;20041;-60
2021/03/21 14:50:43;;;;;;;12.70;8.05;;;16.40;41.40;;;;;;5007770;28;20040;-60
2021/03/21 14:53:49;;;;;;;20.58;12.45;;;15.80;39.30;;;;;;5005231;28;20045;-59
2021/03/21 14:56:53;;;;;;;17.67;10.50;;;15.00;40.10;;;;;;5004052;28;20436;-60
2021/03/21 14:59:58;;;;;;;18.35;11.98;;;15.30;41.10;;;;;;4993628;28;20053;-60
2021/03/21 15:03:04;;;;;;;11.68;7.50;;;15.40;42.50;;;;;;4998095;28;20067;-60
2021/03/21 15:06:09;;;;;;;13.60;8.13;;;15.00;42.30;;;;;;4992200;28;20050;-61
2021/03/21 15:09:14;;;;;;;8.52;6.30;;;14.40;40.90;;;;;;4994756;28;20045;-60
2021/03/21 15:12:19;;;;;;;13.90;9.80;;;13.20;42.40;;;;;;4991654;28;20408;-61
2021/03/21 15:15:32;;;;;;;9.68;6.60;;;12.80;43.50;;;;;;4991835;28;20045;-60
2021/03/21 15:18:40;;;;;;;9.35;6.20;;;13.00;44.90;;;;;;4995227;28;20588;-61
2021/03/21 15:21:46;;;;;;;9.10;6.38;;;12.40;45.40;;;;;;4995243;28;20049;-61
2021/03/21 15:24:51;;;;;;;10.23;6.90;;;12.30;46.80;;;;;;4990587;28;20045;-62
2021/03/21 15:28:01;;;;;;;10.32;6.75;;;12.30;47.20;;;;;;4993103;28;20053;-63
2021/03/21 15:31:12;;;;;;;10.90;7.22;;;12.30;47.40;;;;;;4996223;28;20052;-61
2021/03/21 15:34:17;;;;;;;8.80;6.65;;;12.30;47.00;;;;;;4991885;28;20045;-61
2021/03/21 15:37:22;;;;;;;13.60;6.80;;;11.90;46.90;;;;;;4989740;28;20686;-62
2021/03/21 15:40:30;;;;;;;10.70;7.25;;;11.80;47.60;;;;;;4991384;28;20106;-62
2021/03/21 15:43:36;;;;;;;14.48;9.55;;;11.70;47.50;;;;;;4996739;28;20053;-59
2021/03/21 15:46:41;;;;;;;14.43;10.23;;;11.20;47.20;;;;;;4997299;28;20033;-61
2021/03/21 15:49:45;;;;;;;12.38;8.30;;;10.90;46.60;;;;;;4998772;28;20060;-62
2021/03/21 15:52:52;;;;;;;15.18;10.23;;;10.60;48.70;;;;;;4990556;28;20045;-61
2021/03/21 15:55:57;;;;;;;12.32;9.18;;;10.40;47.50;;;;;;4993376;28;20045;-62
2021/03/21 15:59:01;;;;;;;9.80;6.68;;;10.10;47.60;;;;;;4998733;28;20053;-61
2021/03/21 16:02:07;;;;;;;11.30;6.97;;;10.30;47.90;;;;;;4995880;28;20037;-62
2021/03/21 16:05:13;;;;;;;9.65;6.93;;;10.00;47.60;;;;;;5004394;28;20053;-61
2021/03/21 16:08:17;;;;;;;11.65;8.20;;;9.70;47.70;;;;;;4998970;28;20057;-62
2021/03/21 16:11:23;;;;;;;11.32;6.40;;;9.60;48.40;;;;;;5005903;28;20133;-62
2021/03/21 16:14:28;;;;;;;13.55;8.40;;;9.50;48.10;;;;;;5004810;28;20040;-61
2021/03/21 16:17:33;;;;;;;19.88;14.95;;;9.10;48.40;;;;;;5004593;28;20049;-62
2021/03/21 16:20:39;;;;;;;12.63;9.50;;;9.00;48.90;;;;;;5006523;28;20057;-62
2021/03/21 16:23:44;;;;;;;14.07;8.93;;;8.70;49.70;;;;;;5006218;28;20053;-62
2021/03/21 16:26:49;;;;;;;9.55;7.28;;;8.20;50.50;;;;;;5003433;28;20049;-61
2021/03/21 16:29:54;;;;;;;12.15;8.18;;;8.20;51.40;;;;;;5007421;28;20041;-60
2021/03/21 16:33:00;;;;;;;9.68;6.82;;;8.00;51.40;;;;;;4993252;28;20053;-62
2021/03/21 16:36:05;;;;;;;12.07;7.10;;;8.00;51.80;;;;;;5000686;28;20045;-60
2021/03/21 16:39:11;;;;;;;10.55;7.40;;;7.80;52.70;;;;;;4996509;28;20507;-62
2021/03/21 16:42:17;;;;;;;12.85;9.75;;;7.60;52.40;;;;;;5004266;28;20061;-62
2021/03/21 16:45:25;;;;;;;15.73;9.40;;;7.50;52.80;;;;;;4995406;28;20064;-61